createdAt,value
2023-05-10T04:26:02.600Z,100381.06
2023-05-10T04:30:06.477Z,100381.06
2023-05-10T04:34:09.194Z,100391.12
2023-05-10T04:38:12.197Z,100385.50
2023-05-10T04:42:16.130Z,100389.87
2023-05-10T04:46:19.159Z,100392.22
2023-05-10T04:50:21.857Z,100392.59
2023-05-10T04:54:25.398Z,100392.78
2023-05-10T04:58:28.031Z,100392.13
2023-05-10T05:02:31.928Z,100390.63
2023-05-10T05:06:34.617Z,100387.81
2023-05-10T05:10:37.650Z,100388.63
2023-05-10T05:14:40.416Z,100393.25
2023-05-10T05:18:43.416Z,100387.97
2023-05-10T05:22:46.284Z,100392.25
2023-05-10T05:26:49.792Z,100392.91
2023-05-10T05:30:52.616Z,100395.94
2023-05-10T05:34:55.941Z,100397.09
2023-05-10T05:38:58.829Z,100399.91
2023-05-10T05:43:01.820Z,100402.56
2023-05-10T05:47:04.718Z,100404.84
2023-05-10T05:51:08.040Z,100416.75
2023-05-10T05:55:14.076Z,100412.63
2023-05-10T05:59:18.372Z,100419.66
2023-05-10T06:03:22.294Z,100428.66
2023-05-10T06:07:25.588Z,100427.50
2023-05-10T06:11:28.355Z,100428.78
2023-05-10T06:15:31.330Z,100439.84
2023-05-10T06:19:34.030Z,100434.13
2023-05-10T06:23:37.189Z,100444.44
2023-05-10T06:27:39.829Z,100433.44
2023-05-10T06:31:42.981Z,100430.66
2023-05-10T06:35:45.715Z,100443.28
2023-05-10T06:39:48.752Z,100443.38
2023-05-10T06:43:51.581Z,100441.53
2023-05-10T06:47:54.870Z,100439.47
2023-05-10T06:51:58.475Z,100437.19
2023-05-10T06:56:01.637Z,100438.75
2023-05-10T07:00:05.973Z,100431.03
2023-05-10T07:04:09.529Z,100435.78
2023-05-10T07:08:12.279Z,100434.66
2023-05-10T07:12:16.237Z,100441.91
2023-05-10T07:16:20.370Z,100438.50
2023-05-10T07:20:23.720Z,100431.22
2023-05-10T07:24:26.731Z,100428.75
2023-05-10T07:28:29.748Z,100433.69
2023-05-10T07:32:32.892Z,100425.06
2023-05-10T07:36:37.204Z,100427.09
2023-05-10T07:40:48.924Z,100423.31
2023-05-10T07:44:54.257Z,100418.50
2023-05-10T07:48:57.054Z,100423.72
2023-05-10T07:53:00.139Z,100423.97
2023-05-10T07:57:02.896Z,100429.22
2023-05-10T08:01:06.226Z,100419.19
2023-05-10T08:05:10.791Z,100423.87
2023-05-10T08:09:16.420Z,100412.81
2023-05-10T08:13:20.728Z,100427.22
2023-05-10T08:17:24.886Z,100425.00
2023-05-10T08:21:29.193Z,100422.16
2023-05-10T08:25:32.850Z,100423.91
2023-05-10T08:29:48.959Z,100425.31
2023-05-10T08:33:53.773Z,100427.91
2023-05-10T08:37:56.813Z,100423.41
2023-05-10T08:42:02.689Z,100422.59
2023-05-10T08:46:06.468Z,100420.72
2023-05-10T08:50:09.612Z,100423.69
2023-05-10T08:54:12.963Z,100412.78
2023-05-10T08:58:15.696Z,100410.63
2023-05-10T09:02:19.550Z,100402.66
2023-05-10T09:06:22.299Z,100409.94
2023-05-10T09:10:27.998Z,100404.81
2023-05-10T09:14:32.094Z,100406.41
2023-05-10T09:18:35.275Z,100401.84
2023-05-10T09:22:38.948Z,100403.81
2023-05-10T09:26:49.597Z,100406.59
2023-05-10T09:30:56.729Z,100408.41
2023-05-10T09:35:07.086Z,100394.25
2023-05-10T09:39:10.086Z,100394.41
2023-05-10T09:43:35.917Z,100390.41
2023-05-10T09:47:38.668Z,100390.13
2023-05-10T09:51:45.916Z,100384.88
2023-05-10T09:55:50.474Z,100380.22
2023-05-10T09:59:55.439Z,100380.00
2023-05-10T10:03:59.422Z,100380.34
2023-05-10T10:08:05.091Z,100379.75
2023-05-10T10:12:08.077Z,100370.88
2023-05-10T10:16:11.506Z,100368.66
2023-05-10T10:20:14.607Z,100358.63
2023-05-10T10:24:17.936Z,100361.66
2023-05-10T10:28:39.239Z,100359.97
2023-05-10T10:33:30.190Z,100358.91
2023-05-10T10:37:59.627Z,100347.25
2023-05-10T10:42:06.618Z,100347.16
2023-05-10T10:46:19.671Z,100350.00
2023-05-10T10:50:29.744Z,100340.16
2023-05-10T10:54:36.604Z,100331.66
2023-05-10T10:58:42.999Z,100334.72
2023-05-10T11:02:49.403Z,100324.84
2023-05-10T11:07:12.702Z,100324.78
2023-05-10T11:11:17.293Z,100316.25
2023-05-10T11:15:21.849Z,100307.84
2023-05-10T11:19:32.693Z,100312.16
2023-05-10T11:23:53.603Z,100310.41
2023-05-10T11:27:56.504Z,100305.50
2023-05-10T11:32:01.301Z,100301.03
2023-05-10T11:36:04.151Z,100298.66
2023-05-10T11:40:07.813Z,100300.09
2023-05-10T11:44:13.237Z,100294.78
2023-05-10T11:48:18.226Z,100299.03
2023-05-10T11:52:21.488Z,100291.72
2023-05-10T11:56:24.728Z,100298.03
2023-05-10T12:00:28.749Z,100293.38
2023-05-10T12:04:32.467Z,100283.75
2023-05-10T12:08:35.318Z,100292.84
2023-05-10T12:12:39.747Z,100297.16
2023-05-10T12:16:44.551Z,100288.19
2023-05-10T12:20:48.178Z,100291.50
2023-05-10T12:24:52.017Z,100288.78
2023-05-10T12:29:12.326Z,100283.81
2023-05-10T12:33:21.573Z,100276.72
2023-05-10T12:37:29.497Z,100274.13
2023-05-10T12:41:34.496Z,100271.88
2023-05-10T12:45:37.680Z,100271.41
2023-05-10T12:49:40.323Z,100259.16
2023-05-10T12:53:46.127Z,100260.06
2023-05-10T12:57:49.929Z,100257.37
2023-05-10T13:01:55.185Z,100253.84
2023-05-10T13:05:57.877Z,100249.16
2023-05-10T13:10:00.893Z,100239.22
2023-05-10T13:14:04.475Z,100238.31
2023-05-10T13:18:07.614Z,100236.59
2023-05-10T13:22:10.323Z,100225.91
2023-05-10T13:26:13.325Z,100223.34
2023-05-10T13:30:16.406Z,100205.44
2023-05-10T13:34:21.714Z,100211.50
2023-05-10T13:38:24.464Z,100209.44
2023-05-10T13:42:28.257Z,100197.03
2023-05-10T13:46:31.938Z,100201.44
2023-05-10T13:50:35.058Z,100202.00
2023-05-10T13:54:39.139Z,100194.78
2023-05-10T13:58:42.473Z,100185.22
2023-05-10T14:02:45.341Z,100191.12
2023-05-10T14:06:48.460Z,100183.16
2023-05-10T14:10:51.870Z,100185.72
2023-05-10T14:14:54.826Z,100183.25
2023-05-10T14:18:57.497Z,100171.19
2023-05-10T14:23:01.246Z,100170.22
2023-05-10T14:27:04.013Z,100174.59
2023-05-10T14:31:07.315Z,100170.69
2023-05-10T14:35:12.194Z,100172.13
2023-05-10T14:39:16.740Z,100164.44
2023-05-10T14:43:19.745Z,100161.56
2023-05-10T14:47:22.766Z,100159.00
2023-05-10T14:51:25.472Z,100163.41
2023-05-10T14:55:28.500Z,100165.06
2023-05-10T14:59:31.151Z,100166.72
2023-05-10T15:03:34.654Z,100161.31
2023-05-10T15:07:37.704Z,100165.44
2023-05-10T15:11:40.702Z,100161.91
2023-05-10T15:15:43.720Z,100167.72
2023-05-10T15:19:46.789Z,100169.50
2023-05-10T20:46:48.743Z,100243.44
2023-05-10T20:50:51.940Z,100243.44
2023-05-10T20:54:54.654Z,100248.59
2023-05-10T20:58:57.768Z,100250.94
2023-05-10T21:03:00.670Z,100236.19
2023-05-10T21:41:48.612Z,100246.00
2023-05-10T21:45:51.691Z,100246.00
2023-05-10T21:49:54.304Z,100247.88
2023-05-10T21:53:57.304Z,100250.25
2023-05-10T21:57:59.881Z,100258.47
2023-05-10T22:02:02.995Z,100260.16
2023-05-10T22:06:06.453Z,100255.53
2023-05-10T22:10:09.941Z,100265.44
2023-05-10T22:14:12.949Z,100261.84
2023-05-10T22:18:15.724Z,100265.13
2023-05-10T22:22:18.733Z,100262.50
2023-05-10T22:26:22.332Z,100264.50
2023-05-10T22:30:25.438Z,100256.53
2023-05-10T22:34:28.073Z,100269.12
2023-05-10T22:38:30.976Z,100267.97
2023-05-10T22:42:33.971Z,100259.53
2023-05-10T22:46:37.536Z,100269.28
2023-05-10T22:50:40.218Z,100270.72
2023-05-10T22:54:44.405Z,100270.87
2023-05-10T22:58:47.019Z,100281.63
2023-05-10T23:02:50.109Z,100277.16
2023-05-10T23:06:53.740Z,100281.78
2023-05-10T23:10:56.994Z,100277.63
